sensor_id;sensor_type;location;lat;lon;timestamp;P1;durP1;ratioP1;P2;durP2;ratioP2
58760;SDS011;44529;47.464;19.014;2023-02-01T00:01:36;6.35;;;2.70;;
58760;SDS011;44529;47.464;19.014;2023-02-01T00:04:57;5.60;;;2.95;;
58760;SDS011;44529;47.464;19.014;2023-02-01T00:08:47;4.57;;;2.58;;
58760;SDS011;44529;47.464;19.014;2023-02-01T00:12:31;5.05;;;2.72;;
58760;SDS011;44529;47.464;19.014;2023-02-01T00:16:15;7.70;;;3.08;;
58760;SDS011;44529;47.464;19.014;2023-02-01T00:20:01;6.32;;;3.20;;
58760;SDS011;44529;47.464;19.014;2023-02-01T00:23:51;6.18;;;3.20;;
58760;SDS011;44529;47.464;19.014;2023-02-01T00:27:56;10.45;;;3.37;;
58760;SDS011;44529;47.464;19.014;2023-02-01T00:31:25;5.72;;;3.12;;
58760;SDS011;44529;47.464;19.014;2023-02-01T00:35:24;6.78;;;2.75;;
58760;SDS011;44529;47.464;19.014;2023-02-01T00:39:39;9.27;;;3.03;;
58760;SDS011;44529;47.464;19.014;2023-02-01T00:43:40;6.18;;;2.97;;
58760;SDS011;44529;47.464;19.014;2023-02-01T00:47:12;4.55;;;2.67;;
58760;SDS011;44529;47.464;19.014;2023-02-01T00:51:18;5.32;;;2.78;;
58760;SDS011;44529;47.464;19.014;2023-02-01T00:55:24;3.80;;;2.90;;
58760;SDS011;44529;47.464;19.014;2023-02-01T00:58:58;4.68;;;2.60;;
58760;SDS011;44529;47.464;19.014;2023-02-01T01:03:30;4.05;;;2.80;;
58760;SDS011;44529;47.464;19.014;2023-02-01T01:07:24;5.00;;;3.00;;
58760;SDS011;44529;47.464;19.014;2023-02-01T01:11:20;5.10;;;3.22;;
58760;SDS011;44529;47.464;19.014;2023-02-01T01:14:28;7.20;;;2.60;;
58760;SDS011;44529;47.464;19.014;2023-02-01T01:17:34;6.72;;;2.83;;
58760;SDS011;44529;47.464;19.014;2023-02-01T01:20:47;5.20;;;2.87;;
58760;SDS011;44529;47.464;19.014;2023-02-01T01:25:02;3.70;;;2.83;;
58760;SDS011;44529;47.464;19.014;2023-02-01T01:28:57;4.72;;;2.83;;
58760;SDS011;44529;47.464;19.014;2023-02-01T01:32:59;5.87;;;2.92;;
58760;SDS011;44529;47.464;19.014;2023-02-01T01:36:25;5.07;;;3.15;;
58760;SDS011;44529;47.464;19.014;2023-02-01T01:40:08;3.20;;;2.65;;
58760;SDS011;44529;47.464;19.014;2023-02-01T01:43:17;4.30;;;2.53;;
58760;SDS011;44529;47.464;19.014;2023-02-01T01:46:36;3.60;;;2.72;;
58760;SDS011;44529;47.464;19.014;2023-02-01T01:49:44;5.25;;;3.20;;
58760;SDS011;44529;47.464;19.014;2023-02-01T01:52:54;4.65;;;3.25;;
58760;SDS011;44529;47.464;19.014;2023-02-01T01:56:49;4.43;;;3.20;;
58760;SDS011;44529;47.464;19.014;2023-02-01T02:01:09;4.85;;;3.00;;
58760;SDS011;44529;47.464;19.014;2023-02-01T02:05:47;5.90;;;3.17;;
58760;SDS011;44529;47.464;19.014;2023-02-01T02:10:03;4.90;;;3.00;;
58760;SDS011;44529;47.464;19.014;2023-02-01T02:13:49;4.05;;;3.10;;
58760;SDS011;44529;47.464;19.014;2023-02-01T02:43:14;3.58;;;3.22;;
58760;SDS011;44529;47.464;19.014;2023-02-01T02:46:49;3.47;;;2.83;;
58760;SDS011;44529;47.464;19.014;2023-02-01T02:54:02;2.75;;;2.55;;
58760;SDS011;44529;47.464;19.014;2023-02-01T02:57:45;4.15;;;3.15;;
58760;SDS011;44529;47.464;19.014;2023-02-01T03:01:28;2.90;;;2.53;;
58760;SDS011;44529;47.464;19.014;2023-02-01T03:05:33;3.25;;;2.95;;
58760;SDS011;44529;47.464;19.014;2023-02-01T03:09:30;3.35;;;2.83;;
58760;SDS011;44529;47.464;19.014;2023-02-01T03:13:54;3.00;;;2.70;;
58760;SDS011;44529;47.464;19.014;2023-02-01T03:18:14;3.10;;;2.80;;
58760;SDS011;44529;47.464;19.014;2023-02-01T03:22:32;2.87;;;2.58;;
58760;SDS011;44529;47.464;19.014;2023-02-01T03:26:17;3.12;;;2.85;;
58760;SDS011;44529;47.464;19.014;2023-02-01T03:30:30;2.75;;;2.55;;
58760;SDS011;44529;47.464;19.014;2023-02-01T03:34:29;2.60;;;2.40;;
58760;SDS011;44529;47.464;19.014;2023-02-01T03:42:46;3.65;;;3.10;;
58760;SDS011;44529;47.464;19.014;2023-02-01T03:46:08;2.70;;;2.50;;
58760;SDS011;44529;47.464;19.014;2023-02-01T03:49:25;2.92;;;2.72;;
58760;SDS011;44529;47.464;19.014;2023-02-01T03:52:33;2.47;;;2.28;;
58760;SDS011;44529;47.464;19.014;2023-02-01T03:55:58;2.47;;;2.28;;
58760;SDS011;44529;47.464;19.014;2023-02-01T03:59:08;2.65;;;2.45;;
58760;SDS011;44529;47.464;19.014;2023-02-01T04:02:18;3.00;;;2.70;;
58760;SDS011;44529;47.464;19.014;2023-02-01T04:05:24;2.75;;;2.40;;
58760;SDS011;44529;47.464;19.014;2023-02-01T04:08:32;2.55;;;2.35;;
58760;SDS011;44529;47.464;19.014;2023-02-01T04:11:57;2.72;;;2.25;;
58760;SDS011;44529;47.464;19.014;2023-02-01T04:15:02;3.67;;;2.35;;
58760;SDS011;44529;47.464;19.014;2023-02-01T04:18:14;2.03;;;1.92;;
58760;SDS011;44529;47.464;19.014;2023-02-01T04:21:26;2.60;;;2.40;;
58760;SDS011;44529;47.464;19.014;2023-02-01T04:24:36;3.25;;;2.28;;
58760;SDS011;44529;47.464;19.014;2023-02-01T04:27:47;2.33;;;2.12;;
58760;SDS011;44529;47.464;19.014;2023-02-01T04:30:59;2.42;;;2.20;;
58760;SDS011;44529;47.464;19.014;2023-02-01T04:34:09;2.30;;;2.10;;
58760;SDS011;44529;47.464;19.014;2023-02-01T04:37:23;2.97;;;2.33;;
58760;SDS011;44529;47.464;19.014;2023-02-01T04:40:38;2.28;;;2.05;;
58760;SDS011;44529;47.464;19.014;2023-02-01T04:43:42;2.55;;;2.17;;
58760;SDS011;44529;47.464;19.014;2023-02-01T04:46:46;2.97;;;2.33;;
58760;SDS011;44529;47.464;19.014;2023-02-01T04:49:51;2.40;;;2.20;;
58760;SDS011;44529;47.464;19.014;2023-02-01T04:52:55;2.42;;;2.22;;
58760;SDS011;44529;47.464;19.014;2023-02-01T04:55:59;2.90;;;2.53;;
58760;SDS011;44529;47.464;19.014;2023-02-01T04:59:02;2.30;;;2.10;;
58760;SDS011;44529;47.464;19.014;2023-02-01T05:02:05;2.83;;;2.05;;
58760;SDS011;44529;47.464;19.014;2023-02-01T05:05:08;2.67;;;2.30;;
58760;SDS011;44529;47.464;19.014;2023-02-01T05:08:12;3.28;;;2.22;;
58760;SDS011;44529;47.464;19.014;2023-02-01T05:11:18;2.40;;;2.10;;
58760;SDS011;44529;47.464;19.014;2023-02-01T05:14:39;3.22;;;2.05;;
58760;SDS011;44529;47.464;19.014;2023-02-01T05:17:41;2.25;;;2.03;;
58760;SDS011;44529;47.464;19.014;2023-02-01T05:20:44;3.30;;;2.00;;
58760;SDS011;44529;47.464;19.014;2023-02-01T05:23:47;2.42;;;2.22;;
58760;SDS011;44529;47.464;19.014;2023-02-01T05:27:08;2.33;;;2.12;;
58760;SDS011;44529;47.464;19.014;2023-02-01T05:30:10;2.95;;;2.35;;
58760;SDS011;44529;47.464;19.014;2023-02-01T05:33:16;2.62;;;2.25;;
58760;SDS011;44529;47.464;19.014;2023-02-01T05:36:18;3.85;;;2.37;;
58760;SDS011;44529;47.464;19.014;2023-02-01T05:39:23;2.35;;;2.15;;
58760;SDS011;44529;47.464;19.014;2023-02-01T05:42:26;2.00;;;1.90;;
58760;SDS011;44529;47.464;19.014;2023-02-01T05:45:29;2.28;;;2.08;;
58760;SDS011;44529;47.464;19.014;2023-02-01T05:48:31;2.35;;;2.15;;
58760;SDS011;44529;47.464;19.014;2023-02-01T05:51:34;2.40;;;2.20;;
58760;SDS011;44529;47.464;19.014;2023-02-01T05:54:36;2.30;;;2.20;;
58760;SDS011;44529;47.464;19.014;2023-02-01T05:57:39;2.45;;;2.25;;
58760;SDS011;44529;47.464;19.014;2023-02-01T06:00:41;2.53;;;2.12;;
58760;SDS011;44529;47.464;19.014;2023-02-01T06:03:45;2.20;;;2.00;;
58760;SDS011;44529;47.464;19.014;2023-02-01T06:06:47;3.95;;;2.40;;
58760;SDS011;44529;47.464;19.014;2023-02-01T06:09:52;2.92;;;2.60;;
58760;SDS011;44529;47.464;19.014;2023-02-01T06:12:55;3.15;;;2.25;;
58760;SDS011;44529;47.464;19.014;2023-02-01T06:15:57;2.83;;;2.53;;
58760;SDS011;44529;47.464;19.014;2023-02-01T06:19:00;2.37;;;2.15;;
58760;SDS011;44529;47.464;19.014;2023-02-01T06:22:03;2.60;;;2.40;;
58760;SDS011;44529;47.464;19.014;2023-02-01T06:25:08;2.80;;;2.60;;
58760;SDS011;44529;47.464;19.014;2023-02-01T06:28:12;2.92;;;2.10;;
58760;SDS011;44529;47.464;19.014;2023-02-01T06:31:15;2.55;;;2.35;;
58760;SDS011;44529;47.464;19.014;2023-02-01T06:34:18;3.40;;;2.15;;
58760;SDS011;44529;47.464;19.014;2023-02-01T06:37:24;3.33;;;2.35;;
58760;SDS011;44529;47.464;19.014;2023-02-01T06:40:31;4.55;;;2.33;;
58760;SDS011;44529;47.464;19.014;2023-02-01T06:43:36;2.85;;;2.40;;
58760;SDS011;44529;47.464;19.014;2023-02-01T06:46:40;3.67;;;2.58;;
58760;SDS011;44529;47.464;19.014;2023-02-01T06:49:43;3.35;;;2.92;;
58760;SDS011;44529;47.464;19.014;2023-02-01T06:52:45;2.97;;;2.40;;
58760;SDS011;44529;47.464;19.014;2023-02-01T06:55:51;2.47;;;2.22;;
58760;SDS011;44529;47.464;19.014;2023-02-01T06:58:58;2.67;;;2.47;;
58760;SDS011;44529;47.464;19.014;2023-02-01T07:02:02;2.55;;;2.35;;
58760;SDS011;44529;47.464;19.014;2023-02-01T07:05:06;2.80;;;2.60;;
58760;SDS011;44529;47.464;19.014;2023-02-01T07:08:08;2.47;;;2.28;;
58760;SDS011;44529;47.464;19.014;2023-02-01T07:11:14;3.55;;;2.30;;
58760;SDS011;44529;47.464;19.014;2023-02-01T07:14:24;3.53;;;2.22;;
58760;SDS011;44529;47.464;19.014;2023-02-01T07:17:29;5.43;;;2.37;;
58760;SDS011;44529;47.464;19.014;2023-02-01T07:20:32;2.80;;;2.53;;
58760;SDS011;44529;47.464;19.014;2023-02-01T07:23:38;3.55;;;2.50;;
58760;SDS011;44529;47.464;19.014;2023-02-01T07:26:41;2.80;;;2.42;;
58760;SDS011;44529;47.464;19.014;2023-02-01T07:29:44;3.70;;;2.35;;
58760;SDS011;44529;47.464;19.014;2023-02-01T07:32:47;3.70;;;2.17;;
58760;SDS011;44529;47.464;19.014;2023-02-01T07:35:50;2.83;;;2.47;;
58760;SDS011;44529;47.464;19.014;2023-02-01T07:38:52;2.90;;;2.70;;
58760;SDS011;44529;47.464;19.014;2023-02-01T07:41:57;2.83;;;2.53;;
58760;SDS011;44529;47.464;19.014;2023-02-01T07:45:02;3.17;;;2.87;;
58760;SDS011;44529;47.464;19.014;2023-02-01T07:48:22;3.85;;;2.67;;
58760;SDS011;44529;47.464;19.014;2023-02-01T07:51:26;2.80;;;2.60;;
58760;SDS011;44529;47.464;19.014;2023-02-01T07:54:29;5.20;;;2.30;;
58760;SDS011;44529;47.464;19.014;2023-02-01T07:57:34;2.62;;;2.42;;
58760;SDS011;44529;47.464;19.014;2023-02-01T08:00:38;3.58;;;2.85;;
58760;SDS011;44529;47.464;19.014;2023-02-01T08:04:02;4.85;;;3.10;;
58760;SDS011;44529;47.464;19.014;2023-02-01T08:07:05;4.30;;;2.62;;
58760;SDS011;44529;47.464;19.014;2023-02-01T08:10:08;3.75;;;2.55;;
58760;SDS011;44529;47.464;19.014;2023-02-01T08:13:14;3.22;;;2.90;;
58760;SDS011;44529;47.464;19.014;2023-02-01T08:16:17;2.97;;;2.70;;
58760;SDS011;44529;47.464;19.014;2023-02-01T08:19:22;4.43;;;2.65;;
58760;SDS011;44529;47.464;19.014;2023-02-01T08:22:25;2.53;;;2.30;;
58760;SDS011;44529;47.464;19.014;2023-02-01T08:25:32;3.28;;;2.33;;
58760;SDS011;44529;47.464;19.014;2023-02-01T08:28:45;2.78;;;2.58;;
58760;SDS011;44529;47.464;19.014;2023-02-01T08:31:57;4.95;;;2.90;;
58760;SDS011;44529;47.464;19.014;2023-02-01T08:35:29;3.85;;;2.95;;
58760;SDS011;44529;47.464;19.014;2023-02-01T08:38:45;4.87;;;2.65;;
58760;SDS011;44529;47.464;19.014;2023-02-01T08:41:47;5.82;;;2.95;;
58760;SDS011;44529;47.464;19.014;2023-02-01T08:45:13;3.55;;;3.05;;
58760;SDS011;44529;47.464;19.014;2023-02-01T08:48:30;5.00;;;2.80;;
58760;SDS011;44529;47.464;19.014;2023-02-01T08:51:33;3.30;;;3.00;;
58760;SDS011;44529;47.464;19.014;2023-02-01T08:54:40;5.43;;;3.17;;
58760;SDS011;44529;47.464;19.014;2023-02-01T08:58:15;4.07;;;3.08;;
58760;SDS011;44529;47.464;19.014;2023-02-01T09:01:22;5.65;;;2.87;;
58760;SDS011;44529;47.464;19.014;2023-02-01T09:04:27;3.37;;;2.80;;
58760;SDS011;44529;47.464;19.014;2023-02-01T09:07:32;3.40;;;3.10;;
58760;SDS011;44529;47.464;19.014;2023-02-01T09:10:37;4.05;;;2.90;;
58760;SDS011;44529;47.464;19.014;2023-02-01T09:13:47;4.10;;;3.00;;
58760;SDS011;44529;47.464;19.014;2023-02-01T09:16:50;5.03;;;3.10;;
58760;SDS011;44529;47.464;19.014;2023-02-01T09:19:53;7.03;;;3.83;;
58760;SDS011;44529;47.464;19.014;2023-02-01T09:22:56;4.55;;;2.90;;
58760;SDS011;44529;47.464;19.014;2023-02-01T09:26:01;3.72;;;3.22;;
58760;SDS011;44529;47.464;19.014;2023-02-01T09:29:07;7.75;;;3.40;;
58760;SDS011;44529;47.464;19.014;2023-02-01T09:32:13;6.37;;;4.00;;
58760;SDS011;44529;47.464;19.014;2023-02-01T09:35:15;3.50;;;2.90;;
58760;SDS011;44529;47.464;19.014;2023-02-01T09:38:22;6.05;;;3.40;;
58760;SDS011;44529;47.464;19.014;2023-02-01T09:48:10;5.05;;;3.40;;
58760;SDS011;44529;47.464;19.014;2023-02-01T09:51:48;6.53;;;3.47;;
58760;SDS011;44529;47.464;19.014;2023-02-01T09:54:55;4.37;;;3.22;;
58760;SDS011;44529;47.464;19.014;2023-02-01T09:58:22;5.00;;;3.40;;
58760;SDS011;44529;47.464;19.014;2023-02-01T10:01:36;3.92;;;3.35;;
58760;SDS011;44529;47.464;19.014;2023-02-01T10:04:48;4.85;;;3.53;;
58760;SDS011;44529;47.464;19.014;2023-02-01T10:08:13;6.40;;;3.80;;
58760;SDS011;44529;47.464;19.014;2023-02-01T10:11:34;6.70;;;3.80;;
58760;SDS011;44529;47.464;19.014;2023-02-01T10:14:56;8.38;;;3.90;;
58760;SDS011;44529;47.464;19.014;2023-02-01T10:28:40;6.28;;;3.92;;
58760;SDS011;44529;47.464;19.014;2023-02-01T10:31:48;7.03;;;3.83;;
58760;SDS011;44529;47.464;19.014;2023-02-01T10:35:27;6.28;;;3.85;;
58760;SDS011;44529;47.464;19.014;2023-02-01T10:42:48;6.60;;;4.30;;
58760;SDS011;44529;47.464;19.014;2023-02-01T10:46:29;4.97;;;3.80;;
58760;SDS011;44529;47.464;19.014;2023-02-01T10:49:41;6.82;;;4.10;;
58760;SDS011;44529;47.464;19.014;2023-02-01T10:52:52;5.32;;;4.12;;
58760;SDS011;44529;47.464;19.014;2023-02-01T10:56:05;6.07;;;4.03;;
58760;SDS011;44529;47.464;19.014;2023-02-01T11:02:45;5.93;;;3.90;;
58760;SDS011;44529;47.464;19.014;2023-02-01T11:05:47;4.72;;;4.28;;
58760;SDS011;44529;47.464;19.014;2023-02-01T11:09:21;4.68;;;4.05;;
58760;SDS011;44529;47.464;19.014;2023-02-01T11:12:56;5.28;;;3.83;;
58760;SDS011;44529;47.464;19.014;2023-02-01T11:20:38;5.30;;;4.12;;
58760;SDS011;44529;47.464;19.014;2023-02-01T11:36:20;6.28;;;4.60;;
58760;SDS011;44529;47.464;19.014;2023-02-01T11:39:29;5.87;;;5.00;;
58760;SDS011;44529;47.464;19.014;2023-02-01T11:42:38;5.57;;;5.00;;
58760;SDS011;44529;47.464;19.014;2023-02-01T11:46:01;8.57;;;5.30;;
58760;SDS011;44529;47.464;19.014;2023-02-01T11:56:00;6.87;;;5.18;;
58760;SDS011;44529;47.464;19.014;2023-02-01T12:06:28;6.47;;;5.22;;
58760;SDS011;44529;47.464;19.014;2023-02-01T12:17:27;5.65;;;4.80;;
58760;SDS011;44529;47.464;19.014;2023-02-01T12:20:51;7.50;;;5.18;;
58760;SDS011;44529;47.464;19.014;2023-02-01T12:44:56;7.05;;;4.55;;
58760;SDS011;44529;47.464;19.014;2023-02-01T12:51:20;7.72;;;5.25;;
58760;SDS011;44529;47.464;19.014;2023-02-01T12:54:40;6.70;;;3.78;;
58760;SDS011;44529;47.464;19.014;2023-02-01T12:57:53;4.30;;;3.80;;
58760;SDS011;44529;47.464;19.014;2023-02-01T13:08:10;4.25;;;3.85;;
58760;SDS011;44529;47.464;19.014;2023-02-01T13:11:42;5.18;;;4.10;;
58760;SDS011;44529;47.464;19.014;2023-02-01T13:19:40;6.32;;;4.32;;
58760;SDS011;44529;47.464;19.014;2023-02-01T13:23:43;8.88;;;4.72;;
58760;SDS011;44529;47.464;19.014;2023-02-01T13:27:08;7.47;;;4.72;;
58760;SDS011;44529;47.464;19.014;2023-02-01T13:30:23;11.80;;;4.72;;
58760;SDS011;44529;47.464;19.014;2023-02-01T13:57:39;12.93;;;4.75;;
58760;SDS011;44529;47.464;19.014;2023-02-01T14:00:46;9.45;;;4.50;;
58760;SDS011;44529;47.464;19.014;2023-02-01T14:28:28;6.93;;;4.37;;
58760;SDS011;44529;47.464;19.014;2023-02-01T14:47:05;8.05;;;4.47;;
58760;SDS011;44529;47.464;19.014;2023-02-01T14:53:57;5.00;;;3.50;;
58760;SDS011;44529;47.464;19.014;2023-02-01T14:57:00;3.75;;;2.50;;
58760;SDS011;44529;47.464;19.014;2023-02-01T15:04:41;3.33;;;2.67;;
58760;SDS011;44529;47.464;19.014;2023-02-01T15:07:57;3.67;;;2.50;;
58760;SDS011;44529;47.464;19.014;2023-02-01T15:11:16;3.37;;;1.92;;
58760;SDS011;44529;47.464;19.014;2023-02-01T15:15:14;2.90;;;2.00;;
58760;SDS011;44529;47.464;19.014;2023-02-01T15:19:07;2.87;;;1.95;;
58760;SDS011;44529;47.464;19.014;2023-02-01T15:54:04;4.53;;;1.75;;
58760;SDS011;44529;47.464;19.014;2023-02-01T16:15:14;3.12;;;1.50;;
58760;SDS011;44529;47.464;19.014;2023-02-01T16:18:36;3.62;;;1.58;;
58760;SDS011;44529;47.464;19.014;2023-02-01T16:25:35;1.98;;;1.30;;
58760;SDS011;44529;47.464;19.014;2023-02-01T16:29:10;5.93;;;1.85;;
58760;SDS011;44529;47.464;19.014;2023-02-01T16:32:29;1.77;;;1.50;;
58760;SDS011;44529;47.464;19.014;2023-02-01T16:39:38;3.83;;;1.83;;
58760;SDS011;44529;47.464;19.014;2023-02-01T16:43:52;5.43;;;2.47;;
58760;SDS011;44529;47.464;19.014;2023-02-01T16:56:27;4.12;;;2.20;;
58760;SDS011;44529;47.464;19.014;2023-02-01T17:00:03;5.62;;;2.60;;
58760;SDS011;44529;47.464;19.014;2023-02-01T17:04:37;4.28;;;2.60;;
58760;SDS011;44529;47.464;19.014;2023-02-01T17:09:21;5.10;;;3.33;;
58760;SDS011;44529;47.464;19.014;2023-02-01T17:13:48;5.57;;;2.45;;
58760;SDS011;44529;47.464;19.014;2023-02-01T17:17:54;4.45;;;2.50;;
58760;SDS011;44529;47.464;19.014;2023-02-01T17:26:01;5.93;;;3.62;;
58760;SDS011;44529;47.464;19.014;2023-02-01T17:31:12;5.80;;;2.80;;
58760;SDS011;44529;47.464;19.014;2023-02-01T17:35:31;3.30;;;2.40;;
58760;SDS011;44529;47.464;19.014;2023-02-01T17:43:42;3.55;;;2.55;;
58760;SDS011;44529;47.464;19.014;2023-02-01T18:15:58;3.30;;;2.62;;
58760;SDS011;44529;47.464;19.014;2023-02-01T19:14:04;3.08;;;2.20;;
58760;SDS011;44529;47.464;19.014;2023-02-01T19:28:47;2.40;;;2.20;;
58760;SDS011;44529;47.464;19.014;2023-02-01T19:32:41;2.08;;;1.98;;
58760;SDS011;44529;47.464;19.014;2023-02-01T19:41:18;3.05;;;1.80;;
58760;SDS011;44529;47.464;19.014;2023-02-01T19:45:00;4.00;;;2.28;;
58760;SDS011;44529;47.464;19.014;2023-02-01T20:00:36;4.85;;;2.10;;
58760;SDS011;44529;47.464;19.014;2023-02-01T20:03:46;3.40;;;2.08;;
58760;SDS011;44529;47.464;19.014;2023-02-01T20:07:54;4.90;;;2.08;;
58760;SDS011;44529;47.464;19.014;2023-02-01T20:12:11;2.72;;;2.17;;
58760;SDS011;44529;47.464;19.014;2023-02-01T20:19:59;3.05;;;2.25;;
58760;SDS011;44529;47.464;19.014;2023-02-01T20:23:30;4.03;;;2.22;;
58760;SDS011;44529;47.464;19.014;2023-02-01T20:26:51;2.85;;;2.08;;
58760;SDS011;44529;47.464;19.014;2023-02-01T21:02:17;2.42;;;1.95;;
58760;SDS011;44529;47.464;19.014;2023-02-01T21:09:42;2.50;;;1.80;;
58760;SDS011;44529;47.464;19.014;2023-02-01T21:13:08;4.20;;;2.08;;
58760;SDS011;44529;47.464;19.014;2023-02-01T21:25:37;1.75;;;1.15;;
58760;SDS011;44529;47.464;19.014;2023-02-01T21:28:55;3.78;;;1.60;;
58760;SDS011;44529;47.464;19.014;2023-02-01T21:32:59;2.25;;;1.65;;
58760;SDS011;44529;47.464;19.014;2023-02-01T21:36:51;2.87;;;2.03;;
58760;SDS011;44529;47.464;19.014;2023-02-01T22:00:12;5.10;;;2.72;;
58760;SDS011;44529;47.464;19.014;2023-02-01T22:51:43;4.25;;;3.15;;
58760;SDS011;44529;47.464;19.014;2023-02-01T23:31:04;3.08;;;2.42;;
58760;SDS011;44529;47.464;19.014;2023-02-01T23:35:06;5.03;;;2.90;;
58760;SDS011;44529;47.464;19.014;2023-02-01T23:57:32;2.22;;;1.73;;
